sensor_id;sensor_type;location;lat;lon;timestamp;pressure;altitude;pressure_sealevel;temperature;humidity
13934;BME280;7039;52.168;9.866;2022-10-16T00:01:04;100133.44;;;14.04;93.89
13934;BME280;7039;52.168;9.866;2022-10-16T00:03:31;100134.91;;;13.95;93.25
13934;BME280;7039;52.168;9.866;2022-10-16T00:05:59;100130.50;;;13.95;93.12
13934;BME280;7039;52.168;9.866;2022-10-16T00:08:26;100130.81;;;13.91;93.17
13934;BME280;7039;52.168;9.866;2022-10-16T00:10:52;100138.06;;;13.87;93.40
13934;BME280;7039;52.168;9.866;2022-10-16T00:13:19;100138.28;;;13.84;93.76
13934;BME280;7039;52.168;9.866;2022-10-16T00:15:46;100137.22;;;13.87;93.87
13934;BME280;7039;52.168;9.866;2022-10-16T00:18:13;100130.81;;;13.91;93.60
13934;BME280;7039;52.168;9.866;2022-10-16T00:20:40;100131.88;;;13.88;93.78
13934;BME280;7039;52.168;9.866;2022-10-16T00:23:06;100146.47;;;13.92;93.94
13934;BME280;7039;52.168;9.866;2022-10-16T00:25:33;100138.16;;;13.98;94.13
13934;BME280;7039;52.168;9.866;2022-10-16T00:28:00;100137.72;;;14.05;93.95
13934;BME280;7039;52.168;9.866;2022-10-16T00:30:26;100139.28;;;14.07;94.12
13934;BME280;7039;52.168;9.866;2022-10-16T00:32:54;100146.84;;;14.12;93.89
13934;BME280;7039;52.168;9.866;2022-10-16T00:35:22;100155.22;;;14.17;94.03
13934;BME280;7039;52.168;9.866;2022-10-16T00:37:48;100157.84;;;14.17;93.84
13934;BME280;7039;52.168;9.866;2022-10-16T00:40:15;100166.56;;;14.17;93.92
13934;BME280;7039;52.168;9.866;2022-10-16T00:42:42;100167.41;;;14.18;93.98
13934;BME280;7039;52.168;9.866;2022-10-16T00:45:09;100162.16;;;14.18;94.08
13934;BME280;7039;52.168;9.866;2022-10-16T00:47:37;100166.25;;;14.22;94.04
13934;BME280;7039;52.168;9.866;2022-10-16T00:50:07;100170.34;;;14.26;94.07
13934;BME280;7039;52.168;9.866;2022-10-16T00:52:42;100167.47;;;14.29;94.11
13934;BME280;7039;52.168;9.866;2022-10-16T00:55:10;100166.75;;;14.27;94.39
13934;BME280;7039;52.168;9.866;2022-10-16T00:57:37;100167.72;;;14.26;94.58
13934;BME280;7039;52.168;9.866;2022-10-16T01:00:06;100172.97;;;14.26;95.19
13934;BME280;7039;52.168;9.866;2022-10-16T01:02:33;100173.16;;;14.23;95.42
13934;BME280;7039;52.168;9.866;2022-10-16T01:05:00;100178.31;;;14.25;95.51
13934;BME280;7039;52.168;9.866;2022-10-16T01:07:36;100173.66;;;14.28;95.59
13934;BME280;7039;52.168;9.866;2022-10-16T01:10:14;100168.63;;;14.25;95.89
13934;BME280;7039;52.168;9.866;2022-10-16T01:12:47;100164.13;;;14.27;95.68
13934;BME280;7039;52.168;9.866;2022-10-16T01:15:22;100173.56;;;14.30;95.58
13934;BME280;7039;52.168;9.866;2022-10-16T01:17:56;100162.34;;;14.28;95.74
13934;BME280;7039;52.168;9.866;2022-10-16T01:20:27;100161.41;;;14.29;95.43
13934;BME280;7039;52.168;9.866;2022-10-16T01:23:10;100159.72;;;14.28;95.64
13934;BME280;7039;52.168;9.866;2022-10-16T01:25:52;100169.47;;;14.26;95.94
13934;BME280;7039;52.168;9.866;2022-10-16T01:28:27;100176.72;;;14.22;95.82
13934;BME280;7039;52.168;9.866;2022-10-16T01:30:58;100172.53;;;14.19;95.89
13934;BME280;7039;52.168;9.866;2022-10-16T01:33:29;100164.25;;;14.13;96.38
13934;BME280;7039;52.168;9.866;2022-10-16T01:36:00;100168.78;;;14.11;96.57
13934;BME280;7039;52.168;9.866;2022-10-16T01:38:31;100168.03;;;14.09;96.88
13934;BME280;7039;52.168;9.866;2022-10-16T01:41:04;100179.47;;;14.08;96.67
13934;BME280;7039;52.168;9.866;2022-10-16T01:43:36;100184.84;;;14.06;96.98
13934;BME280;7039;52.168;9.866;2022-10-16T01:46:05;100193.03;;;14.02;96.78
13934;BME280;7039;52.168;9.866;2022-10-16T01:48:32;100186.81;;;14.03;97.05
13934;BME280;7039;52.168;9.866;2022-10-16T01:51:03;100193.75;;;14.04;96.93
13934;BME280;7039;52.168;9.866;2022-10-16T01:53:32;100187.78;;;14.02;96.85
13934;BME280;7039;52.168;9.866;2022-10-16T01:56:00;100190.59;;;13.98;97.05
13934;BME280;7039;52.168;9.866;2022-10-16T01:58:30;100195.00;;;13.98;96.97
13934;BME280;7039;52.168;9.866;2022-10-16T02:01:02;100193.34;;;13.97;97.19
13934;BME280;7039;52.168;9.866;2022-10-16T02:03:32;100194.38;;;13.94;97.08
13934;BME280;7039;52.168;9.866;2022-10-16T02:05:59;100202.34;;;13.93;97.04
13934;BME280;7039;52.168;9.866;2022-10-16T02:08:29;100203.19;;;13.93;97.03
13934;BME280;7039;52.168;9.866;2022-10-16T02:10:57;100207.16;;;13.86;97.16
13934;BME280;7039;52.168;9.866;2022-10-16T02:13:29;100214.94;;;13.88;97.14
13934;BME280;7039;52.168;9.866;2022-10-16T02:15:56;100206.53;;;13.83;97.20
13934;BME280;7039;52.168;9.866;2022-10-16T02:18:24;100218.81;;;13.82;97.27
13934;BME280;7039;52.168;9.866;2022-10-16T02:20:58;100225.75;;;13.83;97.26
13934;BME280;7039;52.168;9.866;2022-10-16T02:23:32;100222.38;;;13.81;97.27
13934;BME280;7039;52.168;9.866;2022-10-16T02:26:04;100218.81;;;13.82;97.21
13934;BME280;7039;52.168;9.866;2022-10-16T02:28:36;100220.81;;;13.78;96.87
13934;BME280;7039;52.168;9.866;2022-10-16T02:31:06;100227.72;;;13.79;96.77
13934;BME280;7039;52.168;9.866;2022-10-16T02:33:36;100225.94;;;13.80;96.55
13934;BME280;7039;52.168;9.866;2022-10-16T02:36:05;100223.53;;;13.77;96.54
13934;BME280;7039;52.168;9.866;2022-10-16T02:38:32;100231.16;;;13.80;96.59
13934;BME280;7039;52.168;9.866;2022-10-16T02:40:59;100223.53;;;13.77;96.37
13934;BME280;7039;52.168;9.866;2022-10-16T02:43:26;100218.19;;;13.78;96.32
13934;BME280;7039;52.168;9.866;2022-10-16T02:45:53;100220.69;;;13.80;96.25
13934;BME280;7039;52.168;9.866;2022-10-16T02:48:19;100214.59;;;13.79;96.29
13934;BME280;7039;52.168;9.866;2022-10-16T02:50:47;100220.59;;;13.82;96.33
13934;BME280;7039;52.168;9.866;2022-10-16T02:53:13;100213.66;;;13.81;96.20
13934;BME280;7039;52.168;9.866;2022-10-16T02:55:40;100218.91;;;13.81;96.20
13934;BME280;7039;52.168;9.866;2022-10-16T02:58:07;100216.50;;;13.77;96.30
13934;BME280;7039;52.168;9.866;2022-10-16T03:00:33;100209.38;;;13.79;96.25
13934;BME280;7039;52.168;9.866;2022-10-16T03:03:00;100214.69;;;13.78;96.13
13934;BME280;7039;52.168;9.866;2022-10-16T03:05:26;100203.38;;;13.77;96.24
13934;BME280;7039;52.168;9.866;2022-10-16T03:07:54;100206.66;;;13.81;96.06
13934;BME280;7039;52.168;9.866;2022-10-16T03:10:21;100205.09;;;13.78;95.99
13934;BME280;7039;52.168;9.866;2022-10-16T03:12:47;100205.41;;;13.74;96.25
13934;BME280;7039;52.168;9.866;2022-10-16T03:15:14;100202.66;;;13.75;96.29
13934;BME280;7039;52.168;9.866;2022-10-16T03:17:40;100196.47;;;13.76;95.97
13934;BME280;7039;52.168;9.866;2022-10-16T03:20:07;100208.84;;;13.74;96.34
13934;BME280;7039;52.168;9.866;2022-10-16T03:22:33;100215.88;;;13.74;96.32
13934;BME280;7039;52.168;9.866;2022-10-16T03:25:01;100212.09;;;13.78;96.09
13934;BME280;7039;52.168;9.866;2022-10-16T03:27:28;100209.59;;;13.76;96.12
13934;BME280;7039;52.168;9.866;2022-10-16T03:29:54;100214.91;;;13.75;96.10
13934;BME280;7039;52.168;9.866;2022-10-16T03:32:21;100214.09;;;13.74;96.14
13934;BME280;7039;52.168;9.866;2022-10-16T03:34:48;100214.69;;;13.78;96.17
13934;BME280;7039;52.168;9.866;2022-10-16T03:37:14;100212.94;;;13.78;95.95
13934;BME280;7039;52.168;9.866;2022-10-16T03:39:40;100211.16;;;13.79;95.94
13934;BME280;7039;52.168;9.866;2022-10-16T03:42:08;100216.28;;;13.81;96.27
13934;BME280;7039;52.168;9.866;2022-10-16T03:44:35;100228.53;;;13.80;96.13
13934;BME280;7039;52.168;9.866;2022-10-16T03:47:01;100222.38;;;13.81;95.96
13934;BME280;7039;52.168;9.866;2022-10-16T03:49:27;100233.59;;;13.83;96.02
13934;BME280;7039;52.168;9.866;2022-10-16T03:51:54;100234.53;;;13.82;96.04
13934;BME280;7039;52.168;9.866;2022-10-16T03:54:21;100222.38;;;13.81;96.02
13934;BME280;7039;52.168;9.866;2022-10-16T03:56:48;100218.91;;;13.81;96.23
13934;BME280;7039;52.168;9.866;2022-10-16T03:59:16;100223.13;;;13.83;96.54
13934;BME280;7039;52.168;9.866;2022-10-16T04:01:42;100225.31;;;13.76;96.58
13934;BME280;7039;52.168;9.866;2022-10-16T04:04:09;100225.63;;;13.72;97.05
13934;BME280;7039;52.168;9.866;2022-10-16T04:06:35;100222.88;;;13.73;96.99
13934;BME280;7039;52.168;9.866;2022-10-16T04:09:02;100216.59;;;13.76;97.03
13934;BME280;7039;52.168;9.866;2022-10-16T04:11:28;100207.16;;;13.73;97.12
13934;BME280;7039;52.168;9.866;2022-10-16T04:13:55;100215.22;;;13.70;97.23
13934;BME280;7039;52.168;9.866;2022-10-16T04:16:23;100219.94;;;13.78;97.05
13934;BME280;7039;52.168;9.866;2022-10-16T04:18:49;100242.19;;;13.72;97.18
13934;BME280;7039;52.168;9.866;2022-10-16T04:21:15;100240.41;;;13.73;97.43
13934;BME280;7039;52.168;9.866;2022-10-16T04:23:42;100242.78;;;13.76;97.15
13934;BME280;7039;52.168;9.866;2022-10-16T04:26:09;100250.66;;;13.76;97.12
13934;BME280;7039;52.168;9.866;2022-10-16T04:28:35;100254.66;;;13.82;96.97
13934;BME280;7039;52.168;9.866;2022-10-16T04:31:03;100244.63;;;13.88;96.88
13934;BME280;7039;52.168;9.866;2022-10-16T04:33:31;100251.34;;;13.92;96.63
13934;BME280;7039;52.168;9.866;2022-10-16T04:35:58;100252.69;;;13.98;96.33
13934;BME280;7039;52.168;9.866;2022-10-16T04:38:25;100250.16;;;13.96;95.89
13934;BME280;7039;52.168;9.866;2022-10-16T04:40:52;100242.63;;;14.05;95.54
13934;BME280;7039;52.168;9.866;2022-10-16T04:43:19;100244.00;;;14.10;95.21
13934;BME280;7039;52.168;9.866;2022-10-16T04:45:45;100241.25;;;14.12;95.08
13934;BME280;7039;52.168;9.866;2022-10-16T04:48:12;100246.41;;;14.13;95.02
13934;BME280;7039;52.168;9.866;2022-10-16T04:50:40;100252.16;;;14.18;95.21
13934;BME280;7039;52.168;9.866;2022-10-16T04:53:07;100240.19;;;14.14;94.85
13934;BME280;7039;52.168;9.866;2022-10-16T04:55:34;100246.19;;;14.16;94.80
13934;BME280;7039;52.168;9.866;2022-10-16T04:58:00;100258.38;;;14.17;94.64
13934;BME280;7039;52.168;9.866;2022-10-16T05:00:27;100252.16;;;14.18;94.40
13934;BME280;7039;52.168;9.866;2022-10-16T05:02:54;100255.31;;;14.24;94.13
13934;BME280;7039;52.168;9.866;2022-10-16T05:05:20;100256.91;;;14.26;93.68
13934;BME280;7039;52.168;9.866;2022-10-16T05:07:49;100273.25;;;14.30;93.75
13934;BME280;7039;52.168;9.866;2022-10-16T05:10:16;100269.78;;;14.29;93.19
13934;BME280;7039;52.168;9.866;2022-10-16T05:12:42;100265.59;;;14.27;93.05
13934;BME280;7039;52.168;9.866;2022-10-16T05:15:09;100266.44;;;14.27;93.00
13934;BME280;7039;52.168;9.866;2022-10-16T05:17:36;100267.50;;;14.25;92.89
13934;BME280;7039;52.168;9.866;2022-10-16T05:20:03;100264.88;;;14.25;92.99
13934;BME280;7039;52.168;9.866;2022-10-16T05:22:30;100272.00;;;14.23;92.77
13934;BME280;7039;52.168;9.866;2022-10-16T05:24:58;100275.13;;;14.28;92.73
13934;BME280;7039;52.168;9.866;2022-10-16T05:27:24;100281.13;;;14.17;93.17
13934;BME280;7039;52.168;9.866;2022-10-16T05:29:50;100274.50;;;14.11;93.35
13934;BME280;7039;52.168;9.866;2022-10-16T05:32:18;100291.09;;;14.12;93.37
13934;BME280;7039;52.168;9.866;2022-10-16T05:34:45;100302.94;;;14.05;93.67
13934;BME280;7039;52.168;9.866;2022-10-16T05:37:11;100299.78;;;13.99;94.10
13934;BME280;7039;52.168;9.866;2022-10-16T05:39:39;100299.06;;;13.97;94.60
13934;BME280;7039;52.168;9.866;2022-10-16T05:42:07;100296.22;;;14.00;94.61
13934;BME280;7039;52.168;9.866;2022-10-16T05:44:33;100303.47;;;13.97;94.79
13934;BME280;7039;52.168;9.866;2022-10-16T05:47:00;100297.56;;;13.93;94.83
13934;BME280;7039;52.168;9.866;2022-10-16T05:49:26;100302.91;;;13.92;95.15
13934;BME280;7039;52.168;9.866;2022-10-16T05:51:53;100300.94;;;13.95;95.48
13934;BME280;7039;52.168;9.866;2022-10-16T05:54:19;100300.72;;;13.98;95.53
13934;BME280;7039;52.168;9.866;2022-10-16T05:56:46;100304.50;;;13.94;96.03
13934;BME280;7039;52.168;9.866;2022-10-16T05:59:14;100310.47;;;13.96;96.02
13934;BME280;7039;52.168;9.866;2022-10-16T06:01:40;100318.53;;;13.93;96.07
13934;BME280;7039;52.168;9.866;2022-10-16T06:04:08;100324.44;;;13.97;96.43
13934;BME280;7039;52.168;9.866;2022-10-16T06:06:34;100332.41;;;13.95;96.46
13934;BME280;7039;52.168;9.866;2022-10-16T06:09:02;100323.78;;;13.93;96.59
13934;BME280;7039;52.168;9.866;2022-10-16T06:11:30;100321.69;;;13.98;97.05
13934;BME280;7039;52.168;9.866;2022-10-16T06:13:59;100317.09;;;14.02;96.66
13934;BME280;7039;52.168;9.866;2022-10-16T06:16:28;100318.66;;;14.05;96.83
13934;BME280;7039;52.168;9.866;2022-10-16T06:18:55;100322.03;;;14.07;96.67
13934;BME280;7039;52.168;9.866;2022-10-16T06:21:25;100330.66;;;14.09;96.95
13934;BME280;7039;52.168;9.866;2022-10-16T06:23:51;100337.25;;;14.02;97.21
13934;BME280;7039;52.168;9.866;2022-10-16T06:26:20;100348.25;;;14.07;97.39
13934;BME280;7039;52.168;9.866;2022-10-16T06:28:48;100352.56;;;14.08;97.16
13934;BME280;7039;52.168;9.866;2022-10-16T06:31:15;100350.56;;;14.11;97.26
13934;BME280;7039;52.168;9.866;2022-10-16T06:33:43;100356.34;;;14.16;97.28
13934;BME280;7039;52.168;9.866;2022-10-16T06:36:12;100348.59;;;14.15;97.14
13934;BME280;7039;52.168;9.866;2022-10-16T06:38:40;100351.31;;;14.13;97.14
13934;BME280;7039;52.168;9.866;2022-10-16T06:41:09;100351.22;;;14.15;97.48
13934;BME280;7039;52.168;9.866;2022-10-16T06:43:35;100353.84;;;14.15;97.50
13934;BME280;7039;52.168;9.866;2022-10-16T06:46:03;100364.88;;;14.20;97.31
13934;BME280;7039;52.168;9.866;2022-10-16T06:48:30;100370.94;;;14.20;97.28
13934;BME280;7039;52.168;9.866;2022-10-16T06:51:00;100375.56;;;14.30;97.01
13934;BME280;7039;52.168;9.866;2022-10-16T06:53:29;100378.84;;;14.33;96.01
13934;BME280;7039;52.168;9.866;2022-10-16T06:55:56;100379.88;;;14.44;96.20
13934;BME280;7039;52.168;9.866;2022-10-16T06:58:23;100382.66;;;14.55;95.70
13934;BME280;7039;52.168;9.866;2022-10-16T07:00:55;100387.69;;;14.71;95.26
13934;BME280;7039;52.168;9.866;2022-10-16T07:03:22;100397.69;;;14.78;94.72
13934;BME280;7039;52.168;9.866;2022-10-16T07:05:48;100391.81;;;14.88;93.78
13934;BME280;7039;52.168;9.866;2022-10-16T07:08:16;100386.00;;;14.95;93.40
13934;BME280;7039;52.168;9.866;2022-10-16T07:10:43;100387.78;;;14.95;93.14
13934;BME280;7039;52.168;9.866;2022-10-16T07:13:09;100385.91;;;14.97;93.20
13934;BME280;7039;52.168;9.866;2022-10-16T07:15:38;100407.44;;;15.02;93.18
13934;BME280;7039;52.168;9.866;2022-10-16T07:18:05;100413.28;;;15.06;92.71
13934;BME280;7039;52.168;9.866;2022-10-16T07:20:31;100404.47;;;15.07;92.44
13934;BME280;7039;52.168;9.866;2022-10-16T07:22:58;100407.09;;;15.07;92.14
13934;BME280;7039;52.168;9.866;2022-10-16T07:25:25;100397.63;;;15.17;91.43
13934;BME280;7039;52.168;9.866;2022-10-16T07:27:52;100403.19;;;15.25;90.74
13934;BME280;7039;52.168;9.866;2022-10-16T07:30:22;100416.81;;;15.30;90.79
13934;BME280;7039;52.168;9.866;2022-10-16T07:32:48;100419.13;;;15.35;90.83
13934;BME280;7039;52.168;9.866;2022-10-16T07:35:15;100422.72;;;15.34;90.54
13934;BME280;7039;52.168;9.866;2022-10-16T07:37:44;100439.50;;;15.44;91.02
13934;BME280;7039;52.168;9.866;2022-10-16T07:40:11;100435.31;;;15.41;90.96
13934;BME280;7039;52.168;9.866;2022-10-16T07:42:39;100439.31;;;15.47;89.51
13934;BME280;7039;52.168;9.866;2022-10-16T07:45:06;100436.13;;;15.55;88.91
13934;BME280;7039;52.168;9.866;2022-10-16T07:47:32;100446.59;;;15.68;88.58
13934;BME280;7039;52.168;9.866;2022-10-16T07:49:59;100456.59;;;15.75;87.74
13934;BME280;7039;52.168;9.866;2022-10-16T07:52:25;100459.53;;;15.83;87.98
13934;BME280;7039;52.168;9.866;2022-10-16T07:54:52;100460.13;;;15.87;87.09
13934;BME280;7039;52.168;9.866;2022-10-16T07:57:18;100465.38;;;15.87;87.50
13934;BME280;7039;52.168;9.866;2022-10-16T07:59:47;100461.59;;;15.91;87.63
13934;BME280;7039;52.168;9.866;2022-10-16T08:02:13;100460.44;;;15.82;87.72
13934;BME280;7039;52.168;9.866;2022-10-16T08:04:40;100464.16;;;15.80;88.21
13934;BME280;7039;52.168;9.866;2022-10-16T08:07:07;100467.28;;;15.85;88.24
13934;BME280;7039;52.168;9.866;2022-10-16T08:09:34;100465.19;;;15.90;88.46
13934;BME280;7039;52.168;9.866;2022-10-16T08:12:00;100463.47;;;15.89;88.23
13934;BME280;7039;52.168;9.866;2022-10-16T08:14:27;100472.94;;;15.92;87.15
13934;BME280;7039;52.168;9.866;2022-10-16T08:16:55;100479.41;;;15.88;87.45
13934;BME280;7039;52.168;9.866;2022-10-16T08:19:22;100488.22;;;15.86;87.97
13934;BME280;7039;52.168;9.866;2022-10-16T08:21:48;100492.56;;;15.88;88.18
13934;BME280;7039;52.168;9.866;2022-10-16T08:24:14;100495.03;;;15.89;87.97
13934;BME280;7039;52.168;9.866;2022-10-16T08:26:41;100493.44;;;15.99;88.66
13934;BME280;7039;52.168;9.866;2022-10-16T08:29:07;100498.56;;;16.01;88.09
13934;BME280;7039;52.168;9.866;2022-10-16T08:31:34;100504.91;;;15.98;88.67
13934;BME280;7039;52.168;9.866;2022-10-16T08:34:02;100507.53;;;15.98;88.36
13934;BME280;7039;52.168;9.866;2022-10-16T08:36:28;100504.69;;;16.01;87.73
13934;BME280;7039;52.168;9.866;2022-10-16T08:38:55;100505.09;;;16.08;87.69
13934;BME280;7039;52.168;9.866;2022-10-16T08:44:31;100514.09;;;16.41;86.09
13934;BME280;7039;52.168;9.866;2022-10-16T08:47:07;100507.31;;;16.49;85.66
13934;BME280;7039;52.168;9.866;2022-10-16T08:49:41;100511.78;;;16.60;85.49
13934;BME280;7039;52.168;9.866;2022-10-16T08:52:10;100514.06;;;16.65;86.44
13934;BME280;7039;52.168;9.866;2022-10-16T08:54:42;100518.63;;;16.63;84.41
13934;BME280;7039;52.168;9.866;2022-10-16T08:57:12;100514.66;;;16.68;85.39
13934;BME280;7039;52.168;9.866;2022-10-16T08:59:39;100512.56;;;16.49;84.66
13934;BME280;7039;52.168;9.866;2022-10-16T09:02:23;100521.06;;;16.53;83.57
13934;BME280;7039;52.168;9.866;2022-10-16T09:04:58;100526.88;;;16.58;84.48
13934;BME280;7039;52.168;9.866;2022-10-16T09:07:32;100517.50;;;16.54;84.39
13934;BME280;7039;52.168;9.866;2022-10-16T09:10:14;100539.00;;;16.48;82.92
13934;BME280;7039;52.168;9.866;2022-10-16T09:12:52;100545.75;;;16.52;83.77
13934;BME280;7039;52.168;9.866;2022-10-16T09:15:27;100543.78;;;16.67;81.88
13934;BME280;7039;52.168;9.866;2022-10-16T09:18:01;100541.91;;;16.80;82.83
13934;BME280;7039;52.168;9.866;2022-10-16T09:20:38;100547.34;;;16.90;82.31
13934;BME280;7039;52.168;9.866;2022-10-16T09:23:14;100556.25;;;16.76;80.89
13934;BME280;7039;52.168;9.866;2022-10-16T09:25:43;100555.81;;;16.82;82.51
13934;BME280;7039;52.168;9.866;2022-10-16T09:28:10;100551.16;;;16.86;81.65
13934;BME280;7039;52.168;9.866;2022-10-16T09:30:37;100554.28;;;16.91;81.62
13934;BME280;7039;52.168;9.866;2022-10-16T09:33:05;100563.06;;;17.03;82.03
13934;BME280;7039;52.168;9.866;2022-10-16T09:35:37;100559.84;;;17.10;79.42
13934;BME280;7039;52.168;9.866;2022-10-16T09:38:04;100567.25;;;17.05;79.00
13934;BME280;7039;52.168;9.866;2022-10-16T09:40:34;100565.59;;;17.16;79.42
13934;BME280;7039;52.168;9.866;2022-10-16T09:43:12;100564.78;;;17.15;79.06
13934;BME280;7039;52.168;9.866;2022-10-16T09:45:40;100570.28;;;17.35;80.58
13934;BME280;7039;52.168;9.866;2022-10-16T09:48:11;100570.44;;;17.44;78.37
13934;BME280;7039;52.168;9.866;2022-10-16T09:50:40;100579.78;;;17.48;78.03
13934;BME280;7039;52.168;9.866;2022-10-16T09:53:14;100581.38;;;17.62;78.34
13934;BME280;7039;52.168;9.866;2022-10-16T09:55:53;100581.13;;;17.77;78.20
13934;BME280;7039;52.168;9.866;2022-10-16T09:58:21;100579.44;;;17.75;76.38
13934;BME280;7039;52.168;9.866;2022-10-16T10:00:49;100580.16;;;17.78;76.27
13934;BME280;7039;52.168;9.866;2022-10-16T10:03:32;100581.22;;;17.75;75.58
13934;BME280;7039;52.168;9.866;2022-10-16T10:06:05;100580.53;;;17.84;75.89
13934;BME280;7039;52.168;9.866;2022-10-16T10:08:33;100579.41;;;17.64;74.69
13934;BME280;7039;52.168;9.866;2022-10-16T10:10:59;100586.97;;;17.58;73.61
13934;BME280;7039;52.168;9.866;2022-10-16T10:13:26;100582.19;;;17.74;74.81
13934;BME280;7039;52.168;9.866;2022-10-16T10:15:53;100601.25;;;17.78;73.16
13934;BME280;7039;52.168;9.866;2022-10-16T10:18:21;100589.25;;;17.73;73.17
13934;BME280;7039;52.168;9.866;2022-10-16T10:20:57;100577.53;;;17.89;74.33
13934;BME280;7039;52.168;9.866;2022-10-16T10:23:28;100592.53;;;18.00;72.82
13934;BME280;7039;52.168;9.866;2022-10-16T10:26:02;100586.84;;;18.27;72.41
13934;BME280;7039;52.168;9.866;2022-10-16T10:28:54;100584.53;;;18.33;71.76
13934;BME280;7039;52.168;9.866;2022-10-16T10:31:27;100587.03;;;18.46;71.05
13934;BME280;7039;52.168;9.866;2022-10-16T10:33:59;100590.22;;;18.61;71.08
13934;BME280;7039;52.168;9.866;2022-10-16T10:36:34;100589.75;;;18.56;70.38
13934;BME280;7039;52.168;9.866;2022-10-16T10:39:06;100586.78;;;18.82;69.80
13934;BME280;7039;52.168;9.866;2022-10-16T10:41:53;100595.72;;;18.69;69.04
13934;BME280;7039;52.168;9.866;2022-10-16T10:44:30;100585.66;;;18.63;69.62
13934;BME280;7039;52.168;9.866;2022-10-16T10:47:08;100599.50;;;18.55;70.13
13934;BME280;7039;52.168;9.866;2022-10-16T10:49:49;100601.72;;;18.71;70.01
13934;BME280;7039;52.168;9.866;2022-10-16T10:55:22;100609.41;;;18.63;69.01
13934;BME280;7039;52.168;9.866;2022-10-16T10:58:05;100610.13;;;18.65;69.16
13934;BME280;7039;52.168;9.866;2022-10-16T11:00:46;100610.97;;;18.77;69.89
13934;BME280;7039;52.168;9.866;2022-10-16T11:03:27;100614.09;;;19.03;68.75
13934;BME280;7039;52.168;9.866;2022-10-16T11:05:59;100603.91;;;18.98;67.36
13934;BME280;7039;52.168;9.866;2022-10-16T11:08:33;100604.94;;;19.07;67.24
13934;BME280;7039;52.168;9.866;2022-10-16T11:11:07;100612.78;;;19.18;67.55
13934;BME280;7039;52.168;9.866;2022-10-16T11:13:40;100615.00;;;19.13;66.69
13934;BME280;7039;52.168;9.866;2022-10-16T11:16:15;100602.34;;;18.96;65.09
13934;BME280;7039;52.168;9.866;2022-10-16T11:18:49;100613.06;;;18.94;64.81
13934;BME280;7039;52.168;9.866;2022-10-16T11:21:19;100605.50;;;18.90;65.21
13934;BME280;7039;52.168;9.866;2022-10-16T11:23:52;100603.16;;;19.08;66.29
13934;BME280;7039;52.168;9.866;2022-10-16T11:26:25;100602.09;;;19.20;64.40
13934;BME280;7039;52.168;9.866;2022-10-16T11:28:54;100598.34;;;19.23;64.88
13934;BME280;7039;52.168;9.866;2022-10-16T11:31:26;100615.31;;;19.41;64.46
13934;BME280;7039;52.168;9.866;2022-10-16T11:33:59;100601.44;;;19.49;63.47
13934;BME280;7039;52.168;9.866;2022-10-16T11:36:33;100615.78;;;19.46;64.31
13934;BME280;7039;52.168;9.866;2022-10-16T11:39:10;100613.84;;;19.27;63.69
13934;BME280;7039;52.168;9.866;2022-10-16T11:41:43;100609.66;;;19.04;64.36
13934;BME280;7039;52.168;9.866;2022-10-16T11:44:21;100611.31;;;19.26;63.47
13934;BME280;7039;52.168;9.866;2022-10-16T11:46:59;100628.34;;;19.33;63.73
13934;BME280;7039;52.168;9.866;2022-10-16T11:49:30;100621.22;;;19.54;63.08
13934;BME280;7039;52.168;9.866;2022-10-16T11:52:05;100623.34;;;19.60;62.57
13934;BME280;7039;52.168;9.866;2022-10-16T11:54:39;100614.53;;;19.71;62.30
13934;BME280;7039;52.168;9.866;2022-10-16T11:57:13;100616.94;;;19.84;61.55
13934;BME280;7039;52.168;9.866;2022-10-16T11:59:44;100624.72;;;19.76;60.46
13934;BME280;7039;52.168;9.866;2022-10-16T12:02:27;100618.13;;;19.70;59.67
13934;BME280;7039;52.168;9.866;2022-10-16T12:05:03;100626.25;;;19.78;60.56
13934;BME280;7039;52.168;9.866;2022-10-16T12:07:35;100634.38;;;19.87;60.67
13934;BME280;7039;52.168;9.866;2022-10-16T12:10:11;100633.25;;;19.89;61.17
13934;BME280;7039;52.168;9.866;2022-10-16T12:12:46;100633.25;;;19.89;61.26
13934;BME280;7039;52.168;9.866;2022-10-16T12:15:22;100621.44;;;19.93;59.79
13934;BME280;7039;52.168;9.866;2022-10-16T12:17:49;100625.06;;;19.92;60.94
13934;BME280;7039;52.168;9.866;2022-10-16T12:20:25;100624.16;;;20.13;60.06
13934;BME280;7039;52.168;9.866;2022-10-16T12:22:54;100627.53;;;20.34;58.87
13934;BME280;7039;52.168;9.866;2022-10-16T12:25:24;100634.53;;;20.45;59.37
13934;BME280;7039;52.168;9.866;2022-10-16T12:27:58;100634.25;;;20.29;58.90
13934;BME280;7039;52.168;9.866;2022-10-16T12:30:27;100629.53;;;20.52;59.19
13934;BME280;7039;52.168;9.866;2022-10-16T12:32:56;100636.09;;;20.48;59.25
13934;BME280;7039;52.168;9.866;2022-10-16T12:35:25;100639.63;;;20.77;59.14
13934;BME280;7039;52.168;9.866;2022-10-16T12:37:54;100649.81;;;20.82;57.91
13934;BME280;7039;52.168;9.866;2022-10-16T12:40:32;100643.81;;;20.70;57.45
13934;BME280;7039;52.168;9.866;2022-10-16T12:43:11;100649.41;;;20.96;57.11
13934;BME280;7039;52.168;9.866;2022-10-16T12:45:38;100646.06;;;21.23;57.53
13934;BME280;7039;52.168;9.866;2022-10-16T12:48:18;100645.78;;;21.17;55.43
13934;BME280;7039;52.168;9.866;2022-10-16T12:50:46;100645.38;;;20.82;55.44
13934;BME280;7039;52.168;9.866;2022-10-16T12:53:18;100653.31;;;21.02;56.24
13934;BME280;7039;52.168;9.866;2022-10-16T12:55:52;100647.97;;;21.31;55.32
13934;BME280;7039;52.168;9.866;2022-10-16T12:58:48;100670.38;;;21.85;56.19
13934;BME280;7039;52.168;9.866;2022-10-16T13:01:29;100672.44;;;22.29;54.41
13934;BME280;7039;52.168;9.866;2022-10-16T13:04:13;100671.91;;;22.25;54.09
13934;BME280;7039;52.168;9.866;2022-10-16T13:06:48;100673.53;;;21.99;54.25
13934;BME280;7039;52.168;9.866;2022-10-16T13:09:30;100676.97;;;22.19;54.29
13934;BME280;7039;52.168;9.866;2022-10-16T13:12:19;100678.72;;;21.90;54.15
13934;BME280;7039;52.168;9.866;2022-10-16T13:15:12;100681.31;;;21.73;54.30
13934;BME280;7039;52.168;9.866;2022-10-16T13:17:51;100671.84;;;21.60;53.15
13934;BME280;7039;52.168;9.866;2022-10-16T13:20:25;100677.00;;;21.62;53.84